createdAt,value
2022-08-14T00:01:54.683Z,60.96
2022-08-14T00:04:35.795Z,61.01
2022-08-14T00:07:10.934Z,61.15
2022-08-14T00:09:56.317Z,61.22
2022-08-14T00:12:33.534Z,61.66
2022-08-14T00:15:19.924Z,62.01
2022-08-14T00:17:52.991Z,62.19
2022-08-14T00:20:30.254Z,62.75
2022-08-14T00:23:11.965Z,62.72
2022-08-14T00:25:42.798Z,62.62
2022-08-14T00:28:14.972Z,62.83
2022-08-14T00:30:44.428Z,62.48
2022-08-14T00:33:15.240Z,63.02
2022-08-14T00:36:35.523Z,63.81
2022-08-14T00:38:31.976Z,64.45
2022-08-14T00:41:01.538Z,63.91
2022-08-14T00:43:32.131Z,64.18
2022-08-14T00:46:08.245Z,65.01
2022-08-14T00:48:50.218Z,65.00
2022-08-14T00:51:18.150Z,64.71
2022-08-14T00:53:44.765Z,64.52
2022-08-14T00:56:15.397Z,64.37
2022-08-14T00:58:45.441Z,64.58
2022-08-14T01:01:17.200Z,64.23
2022-08-14T01:03:44.674Z,64.52
2022-08-14T01:06:16.983Z,64.76
2022-08-14T01:08:51.295Z,64.22
2022-08-14T01:11:24.733Z,63.66
2022-08-14T01:13:56.117Z,63.69
2022-08-14T01:16:30.766Z,64.04
2022-08-14T01:19:16.661Z,64.54
2022-08-14T01:21:46.741Z,65.03
2022-08-14T01:24:22.988Z,65.23
2022-08-14T01:27:00.160Z,65.43
2022-08-14T01:29:44.641Z,65.86
2022-08-14T01:32:22.822Z,66.04
2022-08-14T01:35:20.712Z,66.92
2022-08-14T01:37:56.240Z,66.54
2022-08-14T01:40:37.027Z,66.85
2022-08-14T01:43:15.687Z,66.41
2022-08-14T01:45:49.197Z,66.47
2022-08-14T01:48:26.015Z,66.28
2022-08-14T01:50:53.350Z,66.87
2022-08-14T01:53:20.277Z,66.66
2022-08-14T01:55:49.871Z,66.89
2022-08-14T01:58:19.850Z,66.83
2022-08-14T02:00:55.858Z,66.20
2022-08-14T02:03:29.550Z,65.89
2022-08-14T02:06:03.972Z,66.26
2022-08-14T02:08:53.424Z,66.00
2022-08-14T02:11:24.858Z,65.87
2022-08-14T02:14:07.529Z,66.24
2022-08-14T02:16:41.532Z,66.01
2022-08-14T02:19:15.169Z,66.11
2022-08-14T02:21:50.296Z,65.87
2022-08-14T02:24:39.428Z,66.65
2022-08-14T02:28:23.652Z,67.04
2022-08-14T02:30:01.279Z,66.96
2022-08-14T02:32:36.641Z,67.57
2022-08-14T02:35:13.572Z,67.64
2022-08-14T02:37:48.458Z,67.93
2022-08-14T02:40:19.200Z,67.68
2022-08-14T02:42:54.399Z,68.35
2022-08-14T02:45:38.641Z,67.80
2022-08-14T02:49:04.363Z,67.89
2022-08-14T02:51:00.936Z,67.73
2022-08-14T02:53:29.634Z,67.53
2022-08-14T02:56:03.229Z,68.31
2022-08-14T02:58:48.687Z,68.03
2022-08-14T03:01:20.717Z,68.47
2022-08-14T03:03:51.528Z,69.22
2022-08-14T03:06:48.897Z,69.32
2022-08-14T03:09:13.311Z,69.12
2022-08-14T03:11:44.578Z,69.31
2022-08-14T03:14:12.226Z,70.09
2022-08-14T03:16:43.165Z,70.57
2022-08-14T03:19:09.776Z,70.71
2022-08-14T03:21:39.726Z,70.91
2022-08-14T03:24:21.683Z,71.18
2022-08-14T03:26:56.192Z,70.46
2022-08-14T03:29:26.350Z,71.10
2022-08-14T03:31:53.496Z,71.35
2022-08-14T03:34:24.274Z,71.93
2022-08-14T03:37:37.372Z,72.98
2022-08-14T03:39:43.609Z,73.05
2022-08-14T03:42:19.491Z,72.79
2022-08-14T03:45:18.514Z,72.73
2022-08-14T03:47:46.405Z,72.18
2022-08-14T03:50:27.780Z,72.30
2022-08-14T03:53:02.787Z,71.95
2022-08-14T03:55:30.872Z,71.87
2022-08-14T03:58:00.368Z,72.40
2022-08-14T04:00:43.674Z,72.61
2022-08-14T04:03:16.687Z,72.68
2022-08-14T04:05:48.539Z,73.38
2022-08-14T04:08:29.370Z,73.61
2022-08-14T04:11:00.946Z,73.66
2022-08-14T04:13:31.445Z,73.66
2022-08-14T04:16:02.433Z,73.31
2022-08-14T04:18:33.863Z,73.89
2022-08-14T04:21:02.188Z,74.56
2022-08-14T04:23:33.272Z,74.12
2022-08-14T04:26:04.925Z,74.56
2022-08-14T04:29:08.463Z,74.47
2022-08-14T04:32:56.412Z,75.19
2022-08-14T04:34:17.035Z,74.39
2022-08-14T04:37:02.648Z,73.83
2022-08-14T04:39:57.453Z,74.44
2022-08-14T04:42:47.380Z,74.50
2022-08-14T04:45:20.271Z,74.54
2022-08-14T04:48:05.567Z,74.34
2022-08-14T04:50:37.924Z,74.75
2022-08-14T04:53:19.003Z,74.05
2022-08-14T04:55:51.646Z,73.93
2022-08-14T04:58:32.746Z,73.58
2022-08-14T05:01:03.244Z,73.16
2022-08-14T05:03:33.012Z,73.25
2022-08-14T05:06:03.293Z,73.87
2022-08-14T05:08:50.602Z,73.17
2022-08-14T05:11:19.358Z,73.69
2022-08-14T05:14:34.361Z,73.46
2022-08-14T05:16:33.227Z,73.23
2022-08-14T05:19:17.870Z,73.77
2022-08-14T05:22:00.059Z,73.49
2022-08-14T05:24:29.091Z,72.81
2022-08-14T05:26:57.337Z,72.65
2022-08-14T05:29:27.487Z,72.87
2022-08-14T05:31:57.590Z,72.59
2022-08-14T05:34:31.499Z,72.23
2022-08-14T05:37:06.884Z,72.06
2022-08-14T05:39:33.938Z,73.10
2022-08-14T05:42:00.857Z,73.43
2022-08-14T05:44:36.488Z,73.35
2022-08-14T05:47:02.905Z,72.63
2022-08-14T05:49:33.746Z,72.39
2022-08-14T05:52:02.844Z,71.86
2022-08-14T05:54:35.368Z,71.18
2022-08-14T05:57:05.922Z,71.16
2022-08-14T05:59:36.763Z,70.82
2022-08-14T06:02:10.414Z,71.01
2022-08-14T06:04:37.743Z,70.13
2022-08-14T06:07:05.096Z,70.16
2022-08-14T06:09:35.344Z,70.13
2022-08-14T06:12:03.169Z,69.94
2022-08-14T06:14:37.551Z,69.89
2022-08-14T06:17:05.883Z,69.92
2022-08-14T06:19:32.708Z,69.52
2022-08-14T06:21:59.797Z,68.99
2022-08-14T06:24:30.457Z,68.57
2022-08-14T06:27:04.299Z,68.06
2022-08-14T06:29:35.005Z,68.03
2022-08-14T06:32:52.506Z,67.69
2022-08-14T06:35:04.018Z,66.88
2022-08-14T06:37:42.939Z,66.77
2022-08-14T06:40:16.658Z,66.45
2022-08-14T06:43:00.429Z,66.37
2022-08-14T06:45:31.798Z,65.53
2022-08-14T06:47:59.245Z,65.83
2022-08-14T06:50:30.166Z,65.92
2022-08-14T06:53:03.063Z,65.57
2022-08-14T06:55:29.980Z,65.76
2022-08-14T06:57:57.616Z,64.98
2022-08-14T07:00:30.902Z,63.64
2022-08-14T07:03:19.072Z,64.04
2022-08-14T07:05:58.274Z,64.64
2022-08-14T07:08:29.459Z,64.69
2022-08-14T07:11:01.408Z,64.83
2022-08-14T07:13:28.613Z,64.39
2022-08-14T07:15:58.849Z,64.56
2022-08-14T07:18:32.837Z,63.84
2022-08-14T07:21:00.647Z,64.03
2022-08-14T07:23:27.752Z,63.37
2022-08-14T07:25:59.669Z,63.17
2022-08-14T07:28:35.977Z,62.32
2022-08-14T07:31:11.772Z,61.62
2022-08-14T07:33:50.841Z,61.51
2022-08-14T07:36:27.785Z,61.92
2022-08-14T07:39:00.778Z,62.04
2022-08-14T07:41:33.846Z,60.87
2022-08-14T07:44:28.594Z,59.83
2022-08-14T07:46:49.093Z,58.57
2022-08-14T07:49:17.804Z,58.38
2022-08-14T07:51:45.305Z,57.59
2022-08-14T07:54:12.391Z,56.96
2022-08-14T07:56:46.592Z,56.41
2022-08-14T07:59:16.808Z,55.91
2022-08-14T08:01:47.806Z,55.55
2022-08-14T08:04:16.722Z,55.25
2022-08-14T08:06:52.968Z,55.37
2022-08-14T08:09:24.439Z,55.08
2022-08-14T08:11:54.598Z,54.51
2022-08-14T08:14:25.699Z,54.69
2022-08-14T08:16:57.484Z,54.82
2022-08-14T08:19:25.624Z,53.50
2022-08-14T08:21:52.540Z,53.70
2022-08-14T08:24:21.024Z,52.60
2022-08-14T08:26:50.307Z,52.94
2022-08-14T08:29:28.714Z,52.05
2022-08-14T08:32:01.898Z,52.57
2022-08-14T08:34:38.851Z,52.21
2022-08-14T08:37:07.298Z,52.52
2022-08-14T08:40:02.697Z,52.43
2022-08-14T08:42:38.787Z,51.38
2022-08-14T08:45:12.108Z,50.63
2022-08-14T08:47:43.099Z,50.54
2022-08-14T08:50:23.079Z,50.79
2022-08-14T08:52:52.445Z,49.67
2022-08-14T08:55:46.087Z,49.42
2022-08-14T08:58:20.057Z,49.46
2022-08-14T09:00:54.798Z,48.84
2022-08-14T09:03:27.378Z,48.95
2022-08-14T09:05:58.824Z,48.58
2022-08-14T09:08:31.353Z,48.39
2022-08-14T09:11:18.780Z,48.27
2022-08-14T09:13:50.148Z,47.70
2022-08-14T09:16:21.060Z,46.88
2022-08-14T09:18:48.914Z,46.92
2022-08-14T09:21:16.307Z,47.11
2022-08-14T09:24:26.651Z,46.84
2022-08-14T09:26:30.229Z,46.40
2022-08-14T09:28:59.458Z,46.70
2022-08-14T09:31:28.646Z,45.40
2022-08-14T09:34:27.223Z,45.73
2022-08-14T09:37:15.971Z,44.94
2022-08-14T09:39:51.354Z,44.44
2022-08-14T09:42:36.787Z,45.13
2022-08-14T09:45:17.562Z,44.11
2022-08-14T09:47:47.276Z,44.30
2022-08-14T09:50:44.352Z,43.65
2022-08-14T09:53:18.073Z,42.91
2022-08-14T09:55:45.741Z,43.76
2022-08-14T09:58:23.134Z,44.06
2022-08-14T10:01:01.993Z,43.18
2022-08-14T10:03:36.911Z,42.92
2022-08-14T10:06:12.656Z,42.52
2022-08-14T10:08:51.718Z,42.43
2022-08-14T10:11:24.949Z,41.92
2022-08-14T10:14:35.240Z,41.82
2022-08-14T10:17:08.735Z,41.95
2022-08-14T10:19:36.405Z,41.83
2022-08-14T10:23:13.006Z,41.29
2022-08-14T10:24:59.849Z,39.94
2022-08-14T10:27:29.086Z,40.29
2022-08-14T10:30:00.628Z,40.32
2022-08-14T10:32:40.222Z,39.96
2022-08-14T10:35:17.309Z,38.93
2022-08-14T10:37:51.764Z,38.15
2022-08-14T10:40:44.197Z,37.52
2022-08-14T10:43:27.752Z,38.19
2022-08-14T10:46:58.992Z,37.09
2022-08-14T10:49:05.128Z,36.63
2022-08-14T10:51:35.199Z,37.85
2022-08-14T10:54:35.090Z,37.87
2022-08-14T10:57:11.287Z,37.82
2022-08-14T10:59:56.653Z,36.94
2022-08-14T11:02:44.876Z,37.92
2022-08-14T11:05:18.432Z,38.48
2022-08-14T11:07:56.514Z,37.52
2022-08-14T11:10:28.020Z,36.59
2022-08-14T11:12:57.770Z,36.81
2022-08-14T11:15:27.792Z,36.32
2022-08-14T11:18:01.137Z,35.98
2022-08-14T11:20:30.840Z,36.37
2022-08-14T11:23:00.658Z,36.83
2022-08-14T11:25:36.859Z,36.28
2022-08-14T11:28:14.678Z,35.04
2022-08-14T11:30:53.829Z,36.01
2022-08-14T11:33:29.470Z,36.13
2022-08-14T11:36:00.482Z,35.80
2022-08-14T11:38:38.034Z,36.60
2022-08-14T11:41:06.169Z,36.66
2022-08-14T11:43:55.786Z,35.32
2022-08-14T11:46:30.435Z,34.47
2022-08-14T11:49:06.183Z,34.64
2022-08-14T11:51:36.444Z,34.76
2022-08-14T11:54:20.744Z,34.79
2022-08-14T11:57:04.634Z,35.33
2022-08-14T11:59:33.511Z,34.88
2022-08-14T12:03:00.942Z,34.40
2022-08-14T12:04:57.909Z,34.43
2022-08-14T12:07:24.774Z,33.97
2022-08-14T12:09:56.271Z,33.80
2022-08-14T12:12:35.793Z,32.92
2022-08-14T12:15:05.314Z,33.66
2022-08-14T12:17:47.649Z,33.13
2022-08-14T12:20:29.952Z,33.19
2022-08-14T12:23:05.383Z,33.95
2022-08-14T12:25:34.654Z,34.01
2022-08-14T12:28:05.585Z,35.24
2022-08-14T12:30:42.879Z,36.06
2022-08-14T12:33:32.875Z,36.76
2022-08-14T12:36:07.985Z,37.40
2022-08-14T12:38:44.076Z,36.50
2022-08-14T12:41:21.267Z,35.70
2022-08-14T12:43:53.378Z,34.46
2022-08-14T12:46:40.569Z,33.60
2022-08-14T12:49:16.921Z,34.14
2022-08-14T12:51:59.522Z,32.86
2022-08-14T12:54:29.314Z,32.96
2022-08-14T12:57:06.266Z,32.42
2022-08-14T12:59:33.276Z,32.69
2022-08-14T13:02:08.687Z,33.56
2022-08-14T13:04:39.534Z,33.18
2022-08-14T13:07:09.681Z,33.07
2022-08-14T13:09:37.765Z,32.85
2022-08-14T13:12:32.269Z,32.26
2022-08-14T13:14:55.098Z,31.86
2022-08-14T13:17:24.400Z,32.17
2022-08-14T13:19:56.790Z,32.35
2022-08-14T13:22:33.340Z,31.80
2022-08-14T13:25:05.231Z,31.30
2022-08-14T13:27:38.608Z,31.33
2022-08-14T13:30:10.828Z,31.21
2022-08-14T13:32:51.964Z,31.75
2022-08-14T13:35:19.495Z,31.71
2022-08-14T13:37:52.470Z,31.10
2022-08-14T13:40:26.285Z,30.94
2022-08-14T13:42:57.076Z,30.31
2022-08-14T13:45:33.989Z,30.86
2022-08-14T13:48:27.451Z,30.30
2022-08-14T13:51:01.557Z,30.40
2022-08-14T13:53:33.728Z,30.96
2022-08-14T13:56:02.821Z,30.03
2022-08-14T13:58:35.691Z,30.78
2022-08-14T14:01:04.446Z,30.13
2022-08-14T14:03:35.232Z,30.38
2022-08-14T14:06:03.133Z,30.48
2022-08-14T14:08:43.221Z,31.23
2022-08-14T14:11:11.256Z,31.02
2022-08-14T14:13:44.962Z,30.67
2022-08-14T14:16:15.028Z,30.74
2022-08-14T14:18:43.937Z,31.09
2022-08-14T14:21:14.171Z,31.30
2022-08-14T14:23:42.896Z,32.36
2022-08-14T14:26:13.943Z,31.38
2022-08-14T14:28:42.640Z,31.58
2022-08-14T14:31:11.757Z,32.52
2022-08-14T14:33:46.764Z,31.67
2022-08-14T14:36:20.985Z,30.98
2022-08-14T14:38:57.974Z,30.91
2022-08-14T14:41:37.961Z,31.04
2022-08-14T14:44:06.953Z,31.00
2022-08-14T14:46:37.686Z,31.17
2022-08-14T14:49:14.089Z,31.83
2022-08-14T14:51:45.088Z,31.94
2022-08-14T14:54:17.779Z,31.07
2022-08-14T14:56:49.303Z,31.15
2022-08-14T14:59:18.898Z,31.57
2022-08-14T15:01:53.811Z,31.52
2022-08-14T15:04:21.525Z,31.25
2022-08-14T15:06:50.216Z,31.12
2022-08-14T15:09:20.429Z,31.48
2022-08-14T15:11:50.026Z,31.60
2022-08-14T15:14:54.996Z,30.66
2022-08-14T15:17:03.844Z,30.23
2022-08-14T15:19:32.091Z,31.01
2022-08-14T15:21:59.605Z,30.31
2022-08-14T15:24:27.225Z,30.11
2022-08-14T15:26:58.476Z,29.56
2022-08-14T15:29:25.982Z,29.33
2022-08-14T15:31:53.385Z,29.91
2022-08-14T15:34:44.089Z,29.17
2022-08-14T15:37:10.955Z,29.15
2022-08-14T15:39:41.525Z,28.86
2022-08-14T15:42:16.043Z,29.29
2022-08-14T15:44:58.457Z,29.73
2022-08-14T15:47:31.124Z,29.75
2022-08-14T15:50:05.001Z,30.00
2022-08-14T15:52:35.162Z,30.31
2022-08-14T15:55:07.691Z,30.02
2022-08-14T15:57:34.898Z,30.12
2022-08-14T16:00:39.998Z,30.39
2022-08-14T16:03:14.243Z,30.10
2022-08-14T16:05:43.961Z,30.34
2022-08-14T16:08:28.633Z,30.48
2022-08-14T16:10:59.167Z,30.24
2022-08-14T16:13:39.459Z,30.66
2022-08-14T16:16:50.825Z,30.98
2022-08-14T16:22:56.714Z,31.18
2022-08-14T16:25:02.219Z,31.50
2022-08-14T16:27:38.879Z,31.68
2022-08-14T16:30:12.177Z,31.73
2022-08-14T16:32:54.869Z,31.71
2022-08-14T16:35:24.956Z,31.79
2022-08-14T16:37:55.655Z,32.21
2022-08-14T16:40:23.815Z,30.96
2022-08-14T16:43:04.596Z,31.22
2022-08-14T16:45:43.893Z,31.67
2022-08-14T16:48:56.863Z,30.98
2022-08-14T16:50:58.197Z,30.46
2022-08-14T16:53:28.138Z,30.29
2022-08-14T16:56:23.010Z,30.67
2022-08-14T16:58:51.616Z,30.58
2022-08-14T17:01:25.079Z,30.70
2022-08-14T17:03:58.164Z,30.65
2022-08-14T17:06:51.153Z,30.78
2022-08-14T17:09:33.325Z,30.55
2022-08-14T17:12:28.559Z,30.77
2022-08-14T17:15:09.745Z,30.95
2022-08-14T17:17:40.109Z,31.01
2022-08-14T17:21:00.411Z,30.76
2022-08-14T17:23:02.576Z,31.00
2022-08-14T17:25:37.481Z,30.78
2022-08-14T17:28:52.217Z,31.23
2022-08-14T17:31:05.535Z,31.52
2022-08-14T17:40:41.429Z,32.20
2022-08-14T17:43:07.897Z,32.31
2022-08-14T17:45:41.258Z,32.01
2022-08-14T17:49:14.441Z,32.56
2022-08-14T17:51:23.764Z,32.29
2022-08-14T17:54:02.668Z,33.02
2022-08-14T17:56:31.816Z,32.97
2022-08-14T17:59:05.938Z,33.22
2022-08-14T18:01:37.761Z,33.58
2022-08-14T18:04:24.442Z,33.29
2022-08-14T18:06:57.873Z,33.38
2022-08-14T18:09:37.458Z,33.84
2022-08-14T18:12:08.121Z,33.91
2022-08-14T18:14:48.612Z,33.79
2022-08-14T18:17:23.545Z,33.79
2022-08-14T18:19:51.055Z,33.63
2022-08-14T18:22:32.072Z,34.07
2022-08-14T18:25:19.246Z,34.08
2022-08-14T18:27:51.520Z,34.04
2022-08-14T18:30:32.121Z,33.88
2022-08-14T18:33:16.805Z,33.92
2022-08-14T18:35:58.198Z,34.02
2022-08-14T18:38:45.639Z,33.99
2022-08-14T18:41:37.260Z,34.47
2022-08-14T18:44:10.772Z,34.79
2022-08-14T18:47:16.052Z,34.58
2022-08-14T18:50:00.393Z,35.24
2022-08-14T18:52:34.662Z,35.09
2022-08-14T18:55:17.023Z,35.23
2022-08-14T18:57:58.823Z,35.51
2022-08-14T19:00:33.142Z,35.70
2022-08-14T19:03:05.009Z,36.18
2022-08-14T19:05:47.666Z,35.95
2022-08-14T19:08:25.310Z,35.60
2022-08-14T19:11:05.168Z,35.95
2022-08-14T19:13:48.022Z,36.39
2022-08-14T19:16:26.336Z,36.52
2022-08-14T19:19:00.183Z,37.06
2022-08-14T19:21:38.420Z,37.43
2022-08-14T19:24:27.776Z,37.39
2022-08-14T19:27:16.740Z,37.24
2022-08-14T19:29:47.932Z,37.50
2022-08-14T19:32:36.926Z,37.88
2022-08-14T19:35:16.470Z,38.03
2022-08-14T19:37:52.754Z,38.13
2022-08-14T19:40:38.481Z,38.46
2022-08-14T19:43:06.501Z,38.68
2022-08-14T19:45:34.057Z,38.90
2022-08-14T19:48:01.550Z,39.06
2022-08-14T19:50:38.622Z,39.05
2022-08-14T19:53:17.183Z,39.14
2022-08-14T19:55:58.759Z,39.53
2022-08-14T19:58:54.157Z,39.38
2022-08-14T20:01:25.795Z,40.03
2022-08-14T20:04:00.678Z,39.88
2022-08-14T20:06:43.332Z,39.96
2022-08-14T20:11:05.560Z,40.34
2022-08-14T20:12:04.789Z,40.41
2022-08-14T20:14:36.769Z,40.53
2022-08-14T20:17:06.994Z,40.20
2022-08-14T20:19:37.331Z,40.31
2022-08-14T20:22:37.442Z,41.04
2022-08-14T20:25:16.158Z,40.95
2022-08-14T20:27:44.701Z,40.67
2022-08-14T20:30:33.115Z,40.94
2022-08-14T20:33:11.296Z,40.80
2022-08-14T20:35:38.254Z,40.97
2022-08-14T20:38:30.438Z,41.45
2022-08-14T20:41:06.747Z,41.33
2022-08-14T20:43:57.302Z,41.93
2022-08-14T20:46:29.822Z,42.08
2022-08-14T20:48:59.961Z,42.10
2022-08-14T20:51:37.789Z,42.31
2022-08-14T20:54:14.357Z,42.42
2022-08-14T20:56:44.539Z,42.58
2022-08-14T20:59:23.457Z,42.25
2022-08-14T21:02:27.011Z,42.26
2022-08-14T21:05:03.662Z,42.12
2022-08-14T21:07:36.624Z,42.30
2022-08-14T21:10:35.374Z,42.84
2022-08-14T21:14:09.359Z,42.40
2022-08-14T21:15:57.345Z,42.70
2022-08-14T21:18:31.732Z,42.71
2022-08-14T21:21:07.083Z,42.89
2022-08-14T21:23:54.028Z,43.04
2022-08-14T21:26:51.066Z,42.96
2022-08-14T21:29:22.060Z,42.89
2022-08-14T21:31:56.039Z,43.01
2022-08-14T21:34:31.303Z,43.29
2022-08-14T21:37:07.779Z,43.04
2022-08-14T21:39:36.892Z,43.19
2022-08-14T21:42:05.764Z,43.25
2022-08-14T21:44:36.223Z,43.29
2022-08-14T21:47:10.301Z,43.48
2022-08-14T21:49:38.886Z,43.66
2022-08-14T21:52:49.641Z,43.69
2022-08-14T21:55:09.153Z,43.86
2022-08-14T21:58:45.922Z,44.16
2022-08-14T22:00:39.488Z,44.30
2022-08-14T22:03:17.296Z,44.33
2022-08-14T22:05:46.324Z,43.97
2022-08-14T22:08:14.417Z,44.18
2022-08-14T22:11:11.331Z,44.55
2022-08-14T22:13:46.508Z,44.29
2022-08-14T22:17:02.128Z,44.43
2022-08-14T22:19:01.142Z,44.95
2022-08-14T22:21:28.303Z,45.18
2022-08-14T22:23:57.680Z,44.92
2022-08-14T22:26:30.695Z,46.03
2022-08-14T22:28:59.162Z,46.00
2022-08-14T22:31:26.139Z,46.43
2022-08-14T22:34:04.303Z,46.45
2022-08-14T22:36:49.654Z,46.35
2022-08-14T22:40:17.523Z,46.46
2022-08-14T22:45:08.636Z,47.04
2022-08-14T22:47:40.820Z,47.29
2022-08-14T22:50:31.597Z,47.15
2022-08-14T22:52:57.015Z,48.00
2022-08-14T22:55:25.688Z,48.20
2022-08-14T22:57:52.448Z,48.35
2022-08-14T23:00:25.675Z,48.48
2022-08-14T23:03:01.992Z,48.21
2022-08-14T23:05:39.207Z,47.33
2022-08-14T23:08:59.938Z,47.93
2022-08-14T23:10:59.587Z,48.64
2022-08-14T23:13:26.339Z,48.88
2022-08-14T23:15:57.973Z,48.68
2022-08-14T23:18:29.557Z,48.61
2022-08-14T23:20:56.567Z,48.68
2022-08-14T23:23:23.487Z,48.70
2022-08-14T23:25:59.523Z,48.96
2022-08-14T23:28:35.017Z,48.71
2022-08-14T23:31:34.331Z,48.83
2022-08-14T23:34:07.125Z,49.03
2022-08-14T23:36:52.543Z,49.23
2022-08-14T23:39:30.227Z,49.41
2022-08-14T23:42:04.710Z,49.68
2022-08-14T23:44:35.127Z,49.99
2022-08-14T23:47:10.428Z,50.63
2022-08-14T23:50:01.149Z,51.19
2022-08-14T23:53:04.158Z,51.18
2022-08-14T23:55:21.134Z,51.41
2022-08-14T23:57:58.192Z,50.98
